createdAt,value
2019-04-23T00:00:04.916Z,72.62
2019-04-23T00:02:24.789Z,72.51
2019-04-23T00:04:49.747Z,72.37
2019-04-23T00:07:39.668Z,72.32
2019-04-23T00:09:57.438Z,72.04
2019-04-23T00:12:38.956Z,72.21
2019-04-23T00:15:04.394Z,72.01
2019-04-23T00:17:40.270Z,72.04
2019-04-23T00:20:03.832Z,71.69
2019-04-23T00:23:08.805Z,71.67
2019-04-23T00:25:56.180Z,71.49
2019-04-23T00:30:56.752Z,71.16
2019-04-23T00:33:25.319Z,71.11
2019-04-23T00:36:10.360Z,70.94
2019-04-23T00:40:59.520Z,70.65
2019-04-23T00:43:27.094Z,70.46
2019-04-23T00:45:55.026Z,70.51
2019-04-23T00:53:30.289Z,69.80
2019-04-23T00:56:20.626Z,69.94
2019-04-23T00:58:38.062Z,69.99
2019-04-23T01:01:02.487Z,69.88
2019-04-23T01:03:37.529Z,69.64
2019-04-23T01:06:17.721Z,69.38
2019-04-23T01:08:39.094Z,69.33
2019-04-23T01:11:16.740Z,69.53
2019-04-23T01:13:49.598Z,69.53
2019-04-23T01:16:19.589Z,69.29
2019-04-23T01:21:11.722Z,69.34
2019-04-23T01:23:58.796Z,69.32
2019-04-23T01:26:50.350Z,69.28
2019-04-23T01:29:21.356Z,69.38
2019-04-23T01:31:52.042Z,69.24
2019-04-23T01:34:26.029Z,69.16
2019-04-23T01:36:52.297Z,69.47
2019-04-23T01:39:25.794Z,69.33
2019-04-23T01:41:55.597Z,69.17
2019-04-23T01:44:31.364Z,69.17
2019-04-23T01:46:59.454Z,68.98
2019-04-23T01:49:37.011Z,69.12
2019-04-23T01:52:01.769Z,69.03
2019-04-23T01:54:30.534Z,68.92
2019-04-23T01:57:04.026Z,68.71
2019-04-23T01:59:31.672Z,68.70
2019-04-23T02:02:22.135Z,68.59
2019-04-23T02:04:41.113Z,68.48
2019-04-23T02:07:06.382Z,68.50
2019-04-23T02:12:04.475Z,68.37
2019-04-23T02:14:36.483Z,68.07
2019-04-23T02:17:10.531Z,68.58
2019-04-23T02:22:25.228Z,68.92
2019-04-23T02:24:55.899Z,69.07
2019-04-23T02:27:22.480Z,69.04
2019-04-23T02:32:28.935Z,69.45
2019-04-23T02:35:16.932Z,69.43
2019-04-23T02:37:51.553Z,69.54
2019-04-23T02:40:07.484Z,69.45
2019-04-23T02:45:04.729Z,69.52
2019-04-23T02:47:34.976Z,69.77
2019-04-23T02:52:37.088Z,69.77
2019-04-23T02:55:13.310Z,69.99
2019-04-23T02:57:35.584Z,70.01
2019-04-23T03:02:45.203Z,69.99
2019-04-23T03:07:45.412Z,70.04
2019-04-23T03:10:15.987Z,69.78
2019-04-23T03:15:39.753Z,69.89
2019-04-23T03:18:21.025Z,69.89
2019-04-23T03:21:00.422Z,69.93
2019-04-23T03:26:08.656Z,69.99
2019-04-23T03:36:10.889Z,70.01
2019-04-23T03:43:39.143Z,70.03
2019-04-23T03:46:15.679Z,69.86
2019-04-23T03:48:41.629Z,70.12
2019-04-23T03:51:03.154Z,69.99
2019-04-23T03:53:52.797Z,69.96
2019-04-23T03:56:24.159Z,70.02
2019-04-23T04:01:11.863Z,70.25
2019-04-23T04:06:40.706Z,69.84
2019-04-23T04:08:56.256Z,70.14
2019-04-23T04:11:18.234Z,69.95
2019-04-23T04:19:06.529Z,69.45
2019-04-23T04:21:27.615Z,69.35
2019-04-23T04:23:52.819Z,69.52
2019-04-23T04:26:22.854Z,69.33
2019-04-23T04:28:51.046Z,69.28
2019-04-23T04:31:26.188Z,68.99
2019-04-23T04:36:38.671Z,68.46
2019-04-23T04:38:54.483Z,67.69
2019-04-23T04:44:17.577Z,65.52
2019-04-23T04:49:05.535Z,64.34
2019-04-23T04:51:37.919Z,62.83
2019-04-23T04:56:39.616Z,60.93
2019-04-23T05:01:28.471Z,54.46
2019-04-23T05:03:59.947Z,51.30
2019-04-23T05:06:46.463Z,49.17
2019-04-23T05:14:25.218Z,47.77
2019-04-23T05:16:35.677Z,46.65
2019-04-23T05:19:27.032Z,46.09
2019-04-23T05:24:14.853Z,42.31
2019-04-23T05:26:33.459Z,42.81
2019-04-23T05:31:42.143Z,43.06
2019-04-23T05:36:51.937Z,40.78
2019-04-23T05:39:26.865Z,41.17
2019-04-23T05:41:52.557Z,39.31
2019-04-23T05:44:35.034Z,38.00
2019-04-23T05:47:11.512Z,38.75
2019-04-23T05:49:22.750Z,38.10
2019-04-23T05:54:29.936Z,36.60
2019-04-23T05:56:51.709Z,37.79
2019-04-23T05:59:26.242Z,36.85
2019-04-23T06:07:15.164Z,33.75
2019-04-23T06:09:26.620Z,33.72
2019-04-23T06:14:32.776Z,32.05
2019-04-23T06:17:03.260Z,32.92
2019-04-23T06:22:06.034Z,32.17
2019-04-23T06:27:08.491Z,28.93
2019-04-23T06:32:02.236Z,28.25
2019-04-23T06:37:06.751Z,28.94
2019-04-23T06:42:08.045Z,26.29
2019-04-23T06:44:51.707Z,27.54
2019-04-23T06:47:20.088Z,25.33
2019-04-23T06:55:08.589Z,23.87
2019-04-23T06:57:23.835Z,23.12
2019-04-23T06:59:54.665Z,23.03
2019-04-23T07:02:27.199Z,23.69
2019-04-23T07:05:04.111Z,24.12
2019-04-23T07:07:42.621Z,24.66
2019-04-23T07:09:58.342Z,27.03
2019-04-23T07:12:33.292Z,25.00
2019-04-23T07:15:13.300Z,27.39
2019-04-23T07:17:30.882Z,26.05
2019-04-23T07:20:03.784Z,27.04
2019-04-23T07:22:28.492Z,29.33
2019-04-23T07:25:17.526Z,28.61
2019-04-23T07:30:11.637Z,32.16
2019-04-23T07:32:38.974Z,36.24
2019-04-23T07:35:15.847Z,40.95
2019-04-23T07:37:46.119Z,42.78
2019-04-23T07:43:32.315Z,44.23
2019-04-23T07:48:28.878Z,32.11
2019-04-23T07:51:06.404Z,31.69
2019-04-23T07:53:44.315Z,32.34
2019-04-23T07:58:33.200Z,35.71
2019-04-23T08:01:09.663Z,41.68
2019-04-23T08:03:45.167Z,44.90
2019-04-23T08:06:15.259Z,45.55
2019-04-23T08:08:41.753Z,46.89
2019-04-23T08:16:28.225Z,48.25
2019-04-23T08:21:52.510Z,47.89
2019-04-23T08:24:45.361Z,47.69
2019-04-23T08:27:28.208Z,47.41
2019-04-23T08:30:00.287Z,45.98
2019-04-23T08:32:29.254Z,45.64
2019-04-23T08:37:49.397Z,45.78
2019-04-23T08:40:06.493Z,45.68
2019-04-23T08:42:49.641Z,45.53
2019-04-23T08:50:57.862Z,45.22
2019-04-23T08:55:49.462Z,44.71
2019-04-23T08:58:19.134Z,45.06
2019-04-23T09:03:24.815Z,45.75
2019-04-23T09:08:27.829Z,45.30
2019-04-23T09:13:52.478Z,45.45
2019-04-23T09:15:58.332Z,45.70
2019-04-23T09:20:57.211Z,44.88
2019-04-23T09:23:36.376Z,45.44
2019-04-23T09:26:00.849Z,45.14
2019-04-23T09:28:43.382Z,45.80
2019-04-23T09:31:18.874Z,45.98
2019-04-23T09:33:54.808Z,45.90
2019-04-23T09:36:41.941Z,45.52
2019-04-23T09:41:54.689Z,44.25
2019-04-23T09:44:56.258Z,44.71
2019-04-23T09:47:45.899Z,45.48
2019-04-23T09:50:11.065Z,44.19
2019-04-23T09:52:46.124Z,44.22
2019-04-23T09:55:24.021Z,44.83
2019-04-23T09:57:46.489Z,44.52
2019-04-23T10:00:18.770Z,44.34
2019-04-23T10:02:34.318Z,44.81
2019-04-23T10:05:01.397Z,44.40
2019-04-23T10:07:30.041Z,44.94
2019-04-23T10:09:49.699Z,45.33
2019-04-23T10:12:20.079Z,45.34
2019-04-23T10:14:59.012Z,45.52
2019-04-23T10:17:20.198Z,45.86
2019-04-23T10:19:50.849Z,45.84
2019-04-23T10:22:19.989Z,45.42
2019-04-23T10:24:49.021Z,45.40
2019-04-23T10:27:18.842Z,45.03
2019-04-23T10:29:49.847Z,45.76
2019-04-23T10:32:19.856Z,45.72
2019-04-23T10:35:00.772Z,44.98
2019-04-23T10:37:31.919Z,44.89
2019-04-23T10:39:56.603Z,44.01
2019-04-23T10:42:21.899Z,43.76
2019-04-23T10:45:36.995Z,43.68
2019-04-23T10:48:38.582Z,42.94
2019-04-23T10:53:46.785Z,44.23
2019-04-23T10:56:30.980Z,43.66
2019-04-23T10:58:45.904Z,44.38
2019-04-23T11:01:22.919Z,44.12
2019-04-23T11:04:12.478Z,43.64
2019-04-23T11:09:04.986Z,43.44
2019-04-23T11:11:27.514Z,43.75
2019-04-23T11:14:07.090Z,44.07
2019-04-23T11:19:10.730Z,44.01
2019-04-23T11:21:34.217Z,43.02
2019-04-23T11:24:11.843Z,43.57
2019-04-23T11:26:38.815Z,43.94
2019-04-23T11:29:15.063Z,43.90
2019-04-23T11:34:26.636Z,44.59
2019-04-23T11:38:01.635Z,44.01
2019-04-23T11:39:05.573Z,44.17
2019-04-23T11:41:51.258Z,44.71
2019-04-23T11:49:26.330Z,44.71
2019-04-23T11:51:54.706Z,44.51
2019-04-23T11:54:17.728Z,44.30
2019-04-23T11:59:29.194Z,44.86
2019-04-23T12:02:07.320Z,45.09
2019-04-23T12:05:00.895Z,44.33
2019-04-23T12:07:29.714Z,44.19
2019-04-23T12:10:29.108Z,44.44
2019-04-23T12:12:47.801Z,43.98
2019-04-23T12:18:05.499Z,43.82
2019-04-23T12:20:26.733Z,43.92
2019-04-23T12:23:08.946Z,43.80
2019-04-23T12:27:51.217Z,43.93
2019-04-23T12:30:35.907Z,43.91
2019-04-23T12:34:36.072Z,43.41
2019-04-23T12:36:52.122Z,43.07
2019-04-23T12:39:41.999Z,43.09
2019-04-23T12:42:03.445Z,43.23
2019-04-23T12:44:38.998Z,42.84
2019-04-23T12:47:17.123Z,43.02
2019-04-23T12:49:52.842Z,43.22
2019-04-23T12:52:11.411Z,42.09
2019-04-23T12:54:52.081Z,43.35
2019-04-23T12:57:14.848Z,42.94
2019-04-23T12:59:44.714Z,42.81
2019-04-23T13:02:16.096Z,43.17
2019-04-23T13:07:17.236Z,42.33
2019-04-23T13:09:54.071Z,42.96
2019-04-23T13:12:32.639Z,42.83
2019-04-23T13:14:55.530Z,42.74
2019-04-23T13:17:32.972Z,42.47
2019-04-23T13:22:23.933Z,42.19
2019-04-23T13:25:23.846Z,42.62
2019-04-23T13:27:57.181Z,42.67
2019-04-23T13:30:27.933Z,42.18
2019-04-23T13:32:55.567Z,42.07
2019-04-23T13:35:38.346Z,42.24
2019-04-23T13:43:13.956Z,41.88
2019-04-23T13:48:03.198Z,41.53
2019-04-23T13:50:37.492Z,41.17
2019-04-23T13:55:24.745Z,42.21
2019-04-23T14:05:51.212Z,42.06
2019-04-23T14:08:22.916Z,42.05
2019-04-23T14:10:44.850Z,42.22
2019-04-23T14:20:53.243Z,41.92
2019-04-23T14:26:13.500Z,41.95
2019-04-23T14:31:00.688Z,41.66
2019-04-23T14:33:38.313Z,42.02
2019-04-23T14:36:01.148Z,42.57
2019-04-23T14:41:09.617Z,41.80
2019-04-23T14:48:56.797Z,42.15
2019-04-23T14:54:03.011Z,41.70
2019-04-23T14:56:17.024Z,41.98
2019-04-23T14:58:55.559Z,41.96
2019-04-23T15:03:47.068Z,41.64
2019-04-23T15:06:36.377Z,41.73
2019-04-23T15:11:38.324Z,41.58
2019-04-23T15:13:49.394Z,41.53
2019-04-23T15:16:26.656Z,40.98
2019-04-23T15:19:23.840Z,41.05
2019-04-23T15:22:04.897Z,41.22
2019-04-23T15:24:25.238Z,40.87
2019-04-23T15:28:58.645Z,40.94
2019-04-23T15:31:52.448Z,40.48
2019-04-23T15:37:14.017Z,41.08
2019-04-23T15:47:04.568Z,41.19
2019-04-23T15:49:30.462Z,41.52
2019-04-23T15:54:37.165Z,41.95
2019-04-23T15:57:05.576Z,42.00
2019-04-23T16:01:42.650Z,42.24
2019-04-23T16:04:08.257Z,42.27
2019-04-23T16:06:38.814Z,42.56
2019-04-23T16:09:26.165Z,42.87
2019-04-23T16:11:59.146Z,43.01
2019-04-23T16:14:48.963Z,43.42
2019-04-23T16:17:24.040Z,43.52
2019-04-23T16:20:06.166Z,43.90
2019-04-23T16:22:25.054Z,44.35
2019-04-23T16:25:00.994Z,44.36
2019-04-23T16:27:19.623Z,44.53
2019-04-23T16:30:09.750Z,44.89
2019-04-23T16:33:06.903Z,45.38
2019-04-23T16:35:34.650Z,45.84
2019-04-23T16:38:18.102Z,46.43
2019-04-23T16:40:42.616Z,46.71
2019-04-23T16:43:08.896Z,47.24
2019-04-23T16:45:31.348Z,47.74
2019-04-23T16:48:17.160Z,48.33
2019-04-23T16:50:58.091Z,48.11
2019-04-23T16:53:16.402Z,48.75
2019-04-23T16:55:50.305Z,49.21
2019-04-23T16:58:21.872Z,49.73
2019-04-23T17:00:51.519Z,50.11
2019-04-23T17:03:19.390Z,50.35
2019-04-23T17:08:40.467Z,50.90
2019-04-23T17:13:13.706Z,51.65
2019-04-23T17:15:53.507Z,51.99
2019-04-23T17:18:17.255Z,52.35
2019-04-23T17:23:31.224Z,52.68
2019-04-23T17:25:51.865Z,53.05
2019-04-23T17:28:23.310Z,53.33
2019-04-23T17:31:15.444Z,53.63
2019-04-23T17:33:39.498Z,53.83
2019-04-23T17:36:18.521Z,54.08
2019-04-23T17:41:31.298Z,54.51
2019-04-23T17:44:10.704Z,54.63
2019-04-23T17:46:27.318Z,54.99
2019-04-23T17:49:04.342Z,55.25
2019-04-23T17:51:26.340Z,55.38
2019-04-23T17:59:04.126Z,56.56
2019-04-23T18:01:35.784Z,56.69
2019-04-23T18:04:15.230Z,56.87
2019-04-23T18:06:41.303Z,57.24
2019-04-23T18:09:14.302Z,57.50
2019-04-23T18:11:35.666Z,57.76
2019-04-23T18:14:07.146Z,58.15
2019-04-23T18:16:49.258Z,58.39
2019-04-23T18:19:12.362Z,58.63
2019-04-23T18:22:09.407Z,59.12
2019-04-23T18:25:00.821Z,59.36
2019-04-23T18:30:15.614Z,60.07
2019-04-23T18:35:29.954Z,60.75
2019-04-23T18:38:04.900Z,61.52
2019-04-23T18:40:38.819Z,61.68
2019-04-23T18:45:41.582Z,62.30
2019-04-23T18:48:40.634Z,62.96
2019-04-23T18:53:33.778Z,63.54
2019-04-23T18:58:34.499Z,64.10
2019-04-23T19:01:05.260Z,64.30
2019-04-23T19:03:48.106Z,64.47
2019-04-23T19:06:39.728Z,64.70
2019-04-23T19:10:19.019Z,65.07
2019-04-23T19:15:09.431Z,65.70
2019-04-23T19:17:48.606Z,65.78
2019-04-23T19:20:01.162Z,65.74
2019-04-23T19:22:44.486Z,66.02
2019-04-23T19:25:11.001Z,66.29
2019-04-23T19:30:14.009Z,66.35
2019-04-23T19:32:47.917Z,66.41
2019-04-23T19:35:31.523Z,66.53
2019-04-23T19:37:49.556Z,66.29
2019-04-23T19:40:10.022Z,66.27
2019-04-23T19:42:52.268Z,66.29
2019-04-23T19:45:17.200Z,66.29
2019-04-23T19:47:55.946Z,66.13
2019-04-23T19:50:26.249Z,66.11
2019-04-23T19:53:03.544Z,66.29
2019-04-23T19:55:17.317Z,66.07
2019-04-23T19:57:50.477Z,66.12
2019-04-23T20:00:17.464Z,65.88
2019-04-23T20:05:23.511Z,66.28
2019-04-23T20:08:02.237Z,66.19
2019-04-23T20:10:24.195Z,66.37
2019-04-23T20:12:44.856Z,66.39
2019-04-23T20:15:35.938Z,66.22
2019-04-23T20:20:25.538Z,66.45
2019-04-23T20:22:55.644Z,66.36
2019-04-23T20:25:52.456Z,66.38
2019-04-23T20:36:21.692Z,65.92
2019-04-23T20:41:36.153Z,65.78
2019-04-23T20:43:55.571Z,65.73
2019-04-23T20:46:29.003Z,65.43
2019-04-23T20:48:56.932Z,65.42
2019-04-23T20:51:35.010Z,65.26
2019-04-23T20:59:00.193Z,65.24
2019-04-23T21:01:55.657Z,65.04
2019-04-23T21:04:35.374Z,65.20
2019-04-23T21:07:03.118Z,65.61
2019-04-23T21:09:37.988Z,65.54
2019-04-23T21:12:04.194Z,65.89
2019-04-23T21:14:48.505Z,65.81
2019-04-23T21:16:58.373Z,65.88
2019-04-23T21:19:39.500Z,65.91
2019-04-23T21:22:09.935Z,66.12
2019-04-23T21:24:43.368Z,66.18
2019-04-23T21:27:41.031Z,66.31
2019-04-23T21:32:52.575Z,66.78
2019-04-23T21:35:07.650Z,66.94
2019-04-23T21:40:59.172Z,67.63
2019-04-23T21:43:47.377Z,67.99
2019-04-23T21:46:28.209Z,68.74
2019-04-23T21:48:53.197Z,68.94
2019-04-23T21:51:09.596Z,69.42
2019-04-23T21:53:42.173Z,69.66
2019-04-23T21:56:10.926Z,69.74
2019-04-23T21:58:57.383Z,70.27
2019-04-23T22:01:24.456Z,70.74
2019-04-23T22:04:06.791Z,71.23
2019-04-23T22:06:22.472Z,71.81
2019-04-23T22:08:56.334Z,71.99
2019-04-23T22:11:43.945Z,72.32
2019-04-23T22:16:27.781Z,72.64
2019-04-23T22:19:07.222Z,72.77
2019-04-23T22:26:28.464Z,72.89
2019-04-23T22:29:06.624Z,72.93
2019-04-23T22:31:37.773Z,72.89
2019-04-23T22:36:29.280Z,73.11
2019-04-23T22:41:38.075Z,73.28
2019-04-23T22:44:05.304Z,72.97
2019-04-23T22:49:29.234Z,73.21
2019-04-23T22:51:55.326Z,73.24
2019-04-23T22:54:13.900Z,73.23
2019-04-23T22:56:51.363Z,73.30
2019-04-23T22:59:33.676Z,72.97
2019-04-23T23:01:54.748Z,73.12
2019-04-23T23:04:40.804Z,73.11
2019-04-23T23:11:54.258Z,73.22
2019-04-23T23:14:24.332Z,73.26
2019-04-23T23:19:30.188Z,73.66
2019-04-23T23:29:28.228Z,73.93
2019-04-23T23:32:00.753Z,74.01
2019-04-23T23:34:36.883Z,73.79
2019-04-23T23:39:37.156Z,74.13
2019-04-23T23:42:07.413Z,74.28
2019-04-23T23:47:10.568Z,74.33
2019-04-23T23:49:36.163Z,74.43
2019-04-23T23:52:27.934Z,74.32
2019-04-23T23:54:39.341Z,74.18
2019-04-23T23:57:12.178Z,74.20
